Time;durP1;ratioP1;P1;durP2;ratioP2;P2;SDS_P1;SDS_P2;PMS_P1;PMS_P2;Temp;Humidity;BMP_temperature;BMP_pressure;BME280_temperature;BME280_humidity;BME280_pressure;Samples;Min_cycle;Max_cycle;Signal;HPM_P1;HPM_P2
2021/08/19 00:01:21;;;;;;;4.35;4.05;;;;;;;17.73;74.68;100260.44;2614609;31;20578;-44
2021/08/19 00:03:48;;;;;;;5.90;3.83;;;;;;;17.65;75.23;100256.16;2614649;31;20034;-49
2021/08/19 00:06:15;;;;;;;4.63;3.97;;;;;;;17.66;75.05;100255.31;2615694;31;20451;-44
2021/08/19 00:08:42;;;;;;;4.32;3.92;;;;;;;17.68;75.02;100257.00;2614337;31;20031;-45
2021/08/19 00:11:11;;;;;;;4.68;4.15;;;;;;;17.71;75.31;100250.94;2614811;31;20034;-44
2021/08/19 00:13:40;;;;;;;5.25;4.32;;;;;;;17.70;74.80;100254.38;2618462;31;20034;-46
2021/08/19 00:16:07;;;;;;;4.40;4.00;;;;;;;17.71;74.95;100254.38;2617209;31;20034;-46
2021/08/19 00:18:36;;;;;;;4.10;3.70;;;;;;;17.65;75.22;100256.16;2614669;31;20043;-48
2021/08/19 00:21:04;;;;;;;4.13;3.72;;;;;;;17.67;75.85;100257.03;2613704;36;20565;-45
2021/08/19 00:23:34;;;;;;;3.92;3.63;;;;;;;17.58;76.19;100257.13;2614790;31;20061;-47
2021/08/19 00:26:03;;;;;;;4.53;4.05;;;;;;;17.62;75.74;100251.03;2614656;31;20038;-44
2021/08/19 00:28:31;;;;;;;4.60;4.20;;;;;;;17.59;75.94;100254.50;2615489;31;20459;-44
2021/08/19 00:30:59;;;;;;;4.43;4.07;;;;;;;17.72;75.81;100250.91;2614160;36;20034;-46
2021/08/19 00:33:26;;;;;;;4.43;4.10;;;;;;;17.70;75.87;100255.25;2614185;36;20023;-49
2021/08/19 00:35:53;;;;;;;4.85;4.43;;;;;;;17.69;76.18;100252.66;2614181;36;20030;-49
2021/08/19 00:38:22;;;;;;;6.60;4.60;;;;;;;17.61;76.16;100244.13;2614794;36;20037;-48
2021/08/19 00:40:49;;;;;;;5.18;4.68;;;;;;;17.64;76.43;100244.94;2614088;36;20026;-46
2021/08/19 00:43:18;;;;;;;4.93;4.47;;;;;;;17.63;76.32;100251.00;2614920;31;20045;-48
2021/08/19 00:45:45;;;;;;;5.43;4.82;;;;;;;17.61;77.28;100252.78;2614686;36;20789;-49
2021/08/19 00:48:12;;;;;;;6.15;5.32;;;;;;;17.65;77.02;100250.97;2614024;36;20034;-45
2021/08/19 00:50:41;;;;;;;6.50;5.38;;;;;;;17.67;77.18;100251.84;2615230;31;20042;-51
2021/08/19 00:53:09;;;;;;;8.23;5.70;;;;;;;17.54;77.80;100254.53;2614719;31;20034;-47
2021/08/19 00:55:36;;;;;;;7.93;5.45;;;;;;;17.52;78.19;100247.69;2614852;31;20027;-46
2021/08/19 00:58:03;;;;;;;6.32;5.65;;;;;;;17.57;77.96;100240.72;2613411;36;20573;-49
2021/08/19 01:00:32;;;;;;;8.63;5.53;;;;;;;17.60;78.13;100245.00;2613721;31;20077;-45
2021/08/19 01:03:00;;;;;;;6.00;5.50;;;;;;;17.61;78.33;100252.78;2614353;31;20034;-47
2021/08/19 01:05:30;;;;;;;6.43;5.82;;;;;;;17.63;77.71;100247.56;2614436;31;20062;-46
2021/08/19 01:07:58;;;;;;;6.22;5.57;;;;;;;17.70;77.40;100251.78;2614498;36;20053;-47
2021/08/19 01:10:28;;;;;;;7.22;5.88;;;;;;;17.70;77.42;100249.19;2614493;31;20037;-46
2021/08/19 01:12:56;;;;;;;6.32;5.82;;;;;;;17.61;77.75;100247.59;2614721;31;20057;-45
2021/08/19 01:15:24;;;;;;;6.43;5.78;;;;;;;17.64;78.15;100259.63;2614522;36;20034;-45
2021/08/19 01:17:56;;;;;;;6.55;5.90;;;;;;;17.60;78.34;100256.22;2614309;36;20030;-50
2021/08/19 01:20:26;;;;;;;7.18;6.47;;;;;;;17.44;78.98;100249.47;2614419;31;20031;-48
2021/08/19 01:22:55;;;;;;;5.78;5.18;;;;;;;17.65;78.33;100253.56;2614793;31;20030;-48
2021/08/19 01:25:22;;;;;;;6.53;5.95;;;;;;;17.69;78.12;100250.09;2614313;36;20045;-46
2021/08/19 01:27:52;;;;;;;6.10;5.55;;;;;;;17.71;77.78;100249.22;2614675;31;20587;-50
2021/08/19 01:30:21;;;;;;;6.47;5.80;;;;;;;17.63;78.46;100247.56;2614779;31;20061;-46
2021/08/19 01:32:49;;;;;;;7.10;6.13;;;;;;;17.74;78.15;100246.59;2614441;31;20038;-45
2021/08/19 01:35:26;;;;;;;8.25;7.00;;;;;;;17.61;78.59;100257.06;2614803;31;20031;-45
2021/08/19 01:37:53;;;;;;;10.55;6.65;;;;;;;17.62;78.28;100254.47;2614981;31;20039;-50
2021/08/19 01:40:20;;;;;;;7.75;6.00;;;;;;;17.64;78.44;100251.88;2614523;36;20034;-46
2021/08/19 01:42:47;;;;;;;7.25;6.55;;;;;;;17.61;78.76;100255.34;2614812;31;20038;-45
2021/08/19 01:45:18;;;;;;;7.03;6.38;;;;;;;17.69;78.56;100260.44;2614125;36;20031;-48
2021/08/19 01:47:49;;;;;;;7.70;6.43;;;;;;;17.62;79.11;100251.88;2615381;31;20549;-45
2021/08/19 01:50:16;;;;;;;7.72;6.93;;;;;;;17.68;78.73;100256.13;2614441;36;20034;-46
2021/08/19 01:52:44;;;;;;;7.97;6.35;;;;;;;17.71;78.48;100249.22;2614612;31;20038;-50
2021/08/19 01:55:12;;;;;;;7.45;6.65;;;;;;;17.64;79.42;100260.47;2614432;36;20022;-47
2021/08/19 01:57:40;;;;;;;7.38;6.60;;;;;;;17.76;78.55;100257.81;2614780;36;20454;-50
2021/08/19 02:00:07;;;;;;;7.80;7.10;;;;;;;17.67;78.95;100255.28;2615093;31;20049;-45
2021/08/19 02:02:34;;;;;;;6.97;6.40;;;;;;;17.71;79.07;100262.16;2615177;31;20580;-46
2021/08/19 02:05:02;;;;;;;7.68;6.93;;;;;;;17.71;78.61;100251.78;2614972;31;20045;-45
2021/08/19 02:07:29;;;;;;;7.10;6.38;;;;;;;17.70;78.74;100263.03;2614455;31;20037;-45
2021/08/19 02:09:56;;;;;;;7.22;6.45;;;;;;;17.70;79.04;100262.16;2614373;31;20069;-48
2021/08/19 02:12:23;;;;;;;8.18;6.75;;;;;;;17.63;78.89;100251.00;2614044;31;20042;-48
2021/08/19 02:14:50;;;;;;;9.25;7.30;;;;;;;17.63;79.07;100247.56;2614072;36;20034;-50
2021/08/19 02:17:17;;;;;;;7.90;7.20;;;;;;;17.51;79.24;100246.78;2613962;36;20035;-49
2021/08/19 02:19:44;;;;;;;8.85;7.95;;;;;;;17.48;80.06;100249.44;2614773;31;20038;-47
2021/08/19 02:22:11;;;;;;;8.05;7.25;;;;;;;17.41;79.87;100247.75;2614753;31;20073;-49
2021/08/19 02:24:39;;;;;;;8.20;7.40;;;;;;;17.55;79.73;100245.03;2614766;31;20034;-48
2021/08/19 02:27:06;;;;;;;8.77;7.93;;;;;;;17.50;79.80;100247.69;2615786;31;20031;-47
2021/08/19 02:29:33;;;;;;;8.20;7.40;;;;;;;17.61;78.99;100244.13;2614577;31;20057;-45
2021/08/19 02:32:00;;;;;;;7.55;6.85;;;;;;;17.42;80.59;100233.94;2614029;36;20031;-47
2021/08/19 02:34:27;;;;;;;9.18;8.30;;;;;;;17.56;79.71;100244.16;2614638;31;20031;-46
2021/08/19 02:36:54;;;;;;;9.02;7.90;;;;;;;17.51;79.56;100245.94;2615205;31;20030;-45
2021/08/19 02:39:21;;;;;;;8.85;7.28;;;;;;;17.40;80.62;100229.66;2614541;36;20733;-44
2021/08/19 02:41:49;;;;;;;8.95;8.05;;;;;;;17.36;80.75;100233.16;2614577;31;20038;-47
2021/08/19 02:44:16;;;;;;;8.48;7.68;;;;;;;17.29;80.66;100228.03;2614666;31;20046;-46
2021/08/19 02:46:43;;;;;;;8.07;7.38;;;;;;;17.19;81.43;100225.53;2614876;31;20038;-45
2021/08/19 02:49:10;;;;;;;8.43;7.53;;;;;;;17.24;81.25;100231.53;2614072;36;20061;-48
2021/08/19 02:51:37;;;;;;;9.52;7.85;;;;;;;17.27;81.11;100236.69;2614024;36;20026;-46
2021/08/19 02:54:04;;;;;;;9.48;7.80;;;;;;;17.11;81.97;100232.53;2614431;36;20023;-47
2021/08/19 02:56:31;;;;;;;9.20;8.23;;;;;;;17.26;80.81;100242.75;2614314;36;20042;-44
2021/08/19 02:58:58;;;;;;;8.73;7.90;;;;;;;17.29;81.11;100230.63;2613867;36;20190;-47
2021/08/19 03:01:26;;;;;;;7.60;6.70;;;;;;;17.15;81.06;100234.22;2613809;31;20050;-44
2021/08/19 03:03:53;;;;;;;8.98;8.05;;;;;;;17.08;81.57;100237.72;2614126;36;20026;-47
2021/08/19 03:06:20;;;;;;;10.05;7.70;;;;;;;17.18;81.07;100229.00;2614215;36;20066;-48
2021/08/19 03:08:47;;;;;;;8.77;7.82;;;;;;;17.12;81.58;100229.06;2614593;36;20038;-46
2021/08/19 03:11:14;;;;;;;9.07;7.90;;;;;;;17.02;81.69;100228.28;2615027;36;20035;-44
2021/08/19 03:13:42;;;;;;;7.80;7.10;;;;;;;17.05;81.83;100229.13;2614958;36;20027;-47
2021/08/19 03:16:09;;;;;;;8.40;7.60;;;;;;;17.01;82.25;100226.56;2614907;31;20039;-46
2021/08/19 03:18:36;;;;;;;9.25;7.28;;;;;;;16.99;81.96;100221.41;2614917;31;20034;-45
2021/08/19 03:21:04;;;;;;;8.55;7.65;;;;;;;17.02;82.12;100226.56;2614744;31;20026;-46
2021/08/19 03:23:32;;;;;;;8.38;7.47;;;;;;;16.92;82.65;100230.09;2615311;31;20034;-43
2021/08/19 03:25:59;;;;;;;9.40;8.50;;;;;;;16.96;82.71;100221.44;2614957;31;20038;-45
2021/08/19 03:28:27;;;;;;;9.27;8.40;;;;;;;16.96;82.89;100228.31;2615010;36;20516;-45
2021/08/19 03:30:54;;;;;;;9.98;8.48;;;;;;;16.93;83.15;100225.78;2614461;36;20038;-44
2021/08/19 03:33:21;;;;;;;8.88;7.88;;;;;;;16.95;82.89;100219.69;2614395;36;20082;-45
2021/08/19 03:35:48;;;;;;;10.00;8.23;;;;;;;17.02;82.39;100220.53;2614975;31;20900;-44
2021/08/19 03:38:16;;;;;;;8.27;7.47;;;;;;;16.97;82.81;100217.13;2614122;36;20077;-44
2021/08/19 03:40:43;;;;;;;9.27;8.38;;;;;;;16.90;83.04;100225.78;2614786;31;20034;-47
2021/08/19 03:43:10;;;;;;;8.60;7.82;;;;;;;16.84;83.20;100228.44;2614506;36;20030;-44
2021/08/19 03:45:38;;;;;;;8.82;8.02;;;;;;;16.84;83.37;100225.84;2613772;36;20914;-45
2021/08/19 03:48:05;;;;;;;8.55;7.85;;;;;;;16.67;83.97;100226.78;2613423;36;20057;-44
2021/08/19 03:50:34;;;;;;;8.40;7.60;;;;;;;16.74;84.49;100230.22;2613768;36;20096;-44
2021/08/19 03:53:01;;;;;;;8.48;7.68;;;;;;;16.71;84.34;100231.06;2613922;36;20034;-45
2021/08/19 03:55:28;;;;;;;7.90;7.10;;;;;;;16.71;84.68;100235.38;2614380;31;20035;-45
2021/08/19 03:57:55;;;;;;;8.45;7.45;;;;;;;16.62;84.73;100241.47;2614008;36;20041;-44
2021/08/19 04:00:23;;;;;;;9.25;7.47;;;;;;;16.61;85.39;100241.47;2616502;31;20522;-44
2021/08/19 04:02:50;;;;;;;9.25;7.68;;;;;;;16.54;85.53;100243.22;2614578;36;20041;-44
2021/08/19 04:05:18;;;;;;;8.63;7.68;;;;;;;16.55;85.87;100240.66;2619580;31;20030;-46
2021/08/19 04:07:45;;;;;;;10.00;8.50;;;;;;;16.45;86.26;100246.72;2620003;31;20061;-49
2021/08/19 04:10:12;;;;;;;9.82;8.10;;;;;;;16.43;86.35;100243.28;2615861;36;20034;-46
2021/08/19 04:12:40;;;;;;;8.55;7.75;;;;;;;16.44;86.34;100244.16;2615638;31;20038;-45
2021/08/19 04:15:08;;;;;;;8.27;7.47;;;;;;;16.50;86.15;100244.09;2615266;31;20034;-44
2021/08/19 04:17:36;;;;;;;8.85;7.95;;;;;;;16.53;86.76;100246.69;2614560;36;20027;-45
2021/08/19 04:20:04;;;;;;;9.20;8.07;;;;;;;16.60;85.93;100248.38;2614441;31;20046;-46
2021/08/19 04:22:31;;;;;;;10.45;7.47;;;;;;;16.59;86.32;100250.94;2614440;31;20034;-46
2021/08/19 04:24:58;;;;;;;12.68;7.57;;;;;;;16.60;86.35;100252.69;2614711;31;20442;-44
2021/08/19 04:27:26;;;;;;;8.82;7.80;;;;;;;16.59;87.17;100250.94;2614061;31;20681;-44
2021/08/19 04:29:53;;;;;;;9.77;7.40;;;;;;;16.64;85.84;100249.19;2614891;36;20558;-45
2021/08/19 04:32:20;;;;;;;8.75;7.63;;;;;;;16.66;85.74;100253.50;2614390;31;20034;-43
2021/08/19 04:34:47;;;;;;;10.27;8.02;;;;;;;16.60;87.31;100260.44;2614038;36;20042;-44
2021/08/19 04:37:14;;;;;;;11.85;7.97;;;;;;;16.61;86.88;100257.00;2615003;31;20041;-44
2021/08/19 04:39:41;;;;;;;8.80;7.78;;;;;;;16.65;86.54;100269.88;2615895;31;20035;-49
2021/08/19 04:42:08;;;;;;;12.70;8.35;;;;;;;16.75;87.50;100270.72;2615337;31;20018;-47
2021/08/19 04:44:36;;;;;;;10.45;9.30;;;;;;;16.41;95.49;100286.38;2616189;31;20422;-44
2021/08/19 04:47:03;;;;;;;12.10;10.48;;;;;;;16.29;99.95;100282.13;2615173;31;20038;-46
2021/08/19 04:49:30;;;;;;;12.93;11.60;;;;;;;16.00;100.00;100279.66;2615186;31;20030;-47
2021/08/19 04:51:57;;;;;;;13.32;11.55;;;;;;;15.92;100.00;100281.41;2616083;31;20598;-47
2021/08/19 04:54:24;;;;;;;15.30;12.57;;;;;;;15.66;100.00;100276.28;2615373;31;20090;-44
2021/08/19 04:56:52;;;;;;;18.40;13.95;;;;;;;15.67;100.00;100290.06;2615694;31;20576;-46
2021/08/19 04:59:19;;;;;;;15.93;13.70;;;;;;;15.60;100.00;100284.00;2615670;31;20045;-44
2021/08/19 05:01:46;;;;;;;19.40;15.77;;;;;;;15.48;100.00;100282.31;2616380;31;20440;-46
2021/08/19 05:04:13;;;;;;;21.88;16.13;;;;;;;15.50;100.00;100282.31;2615059;36;20034;-47
2021/08/19 05:06:40;;;;;;;23.85;18.15;;;;;;;15.37;100.00;100278.00;2615434;36;20093;-45
2021/08/19 05:09:08;;;;;;;20.75;16.63;;;;;;;15.35;100.00;100279.75;2615382;36;20362;-47
2021/08/19 05:11:36;;;;;;;23.17;17.73;;;;;;;15.51;100.00;100292.63;2615208;31;20057;-45
2021/08/19 05:14:03;;;;;;;26.40;16.77;;;;;;;15.42;100.00;100278.88;2616047;31;21319;-44
2021/08/19 05:16:32;;;;;;;21.15;18.13;;;;;;;15.51;100.00;100277.13;2615155;36;20031;-46
2021/08/19 05:18:59;;;;;;;21.70;17.90;;;;;;;15.36;100.00;100281.47;2615507;31;20578;-48
2021/08/19 05:21:27;;;;;;;29.55;18.88;;;;;;;15.25;100.00;100286.59;2615480;31;20035;-46
2021/08/19 05:23:54;;;;;;;27.25;18.25;;;;;;;15.34;100.00;100286.59;2615225;36;20065;-44
2021/08/19 05:26:21;;;;;;;27.20;19.33;;;;;;;15.41;100.00;100295.22;2615730;31;20418;-48
2021/08/19 05:28:48;;;;;;;32.28;18.60;;;;;;;15.57;100.00;100296.06;2614926;36;20054;-44
2021/08/19 05:31:16;;;;;;;22.38;16.50;;;;;;;15.63;100.00;100296.06;2615435;31;20039;-44
2021/08/19 05:33:44;;;;;;;30.33;17.60;;;;;;;15.75;100.00;100296.06;2615363;31;20546;-44
2021/08/19 05:36:12;;;;;;;22.30;17.05;;;;;;;15.63;100.00;100301.22;2615678;31;20577;-44
2021/08/19 05:38:43;;;;;;;17.35;14.32;;;;;;;15.91;100.00;100291.75;2615346;31;20363;-51
2021/08/19 05:41:10;;;;;;;15.43;13.27;;;;;;;15.88;100.00;100289.16;2615693;31;20027;-44
2021/08/19 05:43:37;;;;;;;18.40;13.57;;;;;;;15.93;100.00;100295.16;2615309;36;20061;-45
2021/08/19 05:46:08;;;;;;;14.82;13.23;;;;;;;15.93;100.00;100296.03;2615156;31;20034;-44
2021/08/19 05:48:35;;;;;;;15.60;13.35;;;;;;;16.08;100.00;100305.44;2614912;36;20463;-45
2021/08/19 05:51:02;;;;;;;15.85;13.23;;;;;;;16.30;100.00;100304.50;2616003;36;20933;-47
2021/08/19 05:53:30;;;;;;;13.15;11.73;;;;;;;16.28;100.00;100297.66;2616747;31;20463;-49
2021/08/19 05:55:57;;;;;;;14.10;11.85;;;;;;;16.43;100.00;100307.91;2616846;36;20034;-47
2021/08/19 05:58:24;;;;;;;16.88;11.70;;;;;;;16.37;100.00;100305.34;2615952;36;20034;-44
2021/08/19 06:00:51;;;;;;;12.88;11.27;;;;;;;16.28;100.00;100313.16;2615115;36;20026;-45
2021/08/19 06:03:20;;;;;;;11.52;10.38;;;;;;;16.43;100.00;100310.50;2615030;31;20065;-44
2021/08/19 06:05:49;;;;;;;13.75;9.63;;;;;;;16.57;100.00;100317.31;2614156;36;20030;-47
2021/08/19 06:08:16;;;;;;;10.77;9.50;;;;;;;16.70;100.00;100306.06;2614664;36;20061;-45
2021/08/19 06:10:44;;;;;;;10.18;9.00;;;;;;;16.51;100.00;100306.16;2615484;31;20053;-44
2021/08/19 06:13:11;;;;;;;11.82;8.38;;;;;;;16.72;100.00;100312.94;2615642;31;20038;-46
2021/08/19 06:15:38;;;;;;;10.27;8.30;;;;;;;16.92;100.00;100318.03;2615398;31;20451;-47
2021/08/19 06:18:05;;;;;;;9.55;8.43;;;;;;;17.13;100.00;100318.75;2614944;31;20034;-44
2021/08/19 06:20:32;;;;;;;10.88;7.90;;;;;;;17.16;99.48;100308.38;2615096;31;20074;-49
2021/08/19 06:23:00;;;;;;;9.90;6.50;;;;;;;17.35;96.46;100309.09;2615034;31;20450;-48
2021/08/19 06:25:28;;;;;;;7.18;6.35;;;;;;;17.51;95.01;100318.44;2614856;36;20029;-48
2021/08/19 06:27:55;;;;;;;7.45;6.10;;;;;;;17.58;93.70;100312.34;2615669;31;20132;-44
2021/08/19 06:30:22;;;;;;;7.13;6.43;;;;;;;17.28;95.57;100310.84;2614479;36;20042;-45
2021/08/19 06:32:49;;;;;;;7.93;6.35;;;;;;;17.47;95.46;100312.44;2615040;36;20034;-44
2021/08/19 06:35:17;;;;;;;7.63;5.85;;;;;;;17.77;94.13;100315.66;2615361;31;20642;-45
2021/08/19 06:37:44;;;;;;;8.07;6.38;;;;;;;17.84;93.41;100319.91;2614808;31;20035;-46
2021/08/19 06:40:11;;;;;;;9.45;5.88;;;;;;;17.64;92.91;100317.44;2615380;36;20034;-44
2021/08/19 06:42:38;;;;;;;11.18;5.85;;;;;;;17.86;92.17;100320.72;2617076;31;20042;-47
2021/08/19 06:45:06;;;;;;;6.68;5.95;;;;;;;18.07;91.85;100322.22;2614943;36;20035;-44
2021/08/19 06:47:33;;;;;;;7.90;6.20;;;;;;;18.11;89.91;100317.88;2615493;31;20553;-47
2021/08/19 06:50:00;;;;;;;7.05;5.88;;;;;;;18.08;89.73;100315.34;2616078;31;20031;-45
2021/08/19 06:52:29;;;;;;;7.82;5.60;;;;;;;18.13;89.12;100317.00;2615176;36;20081;-44
2021/08/19 06:54:58;;;;;;;6.22;5.47;;;;;;;18.23;88.67;100320.34;2616080;31;20443;-45
2021/08/19 06:57:26;;;;;;;6.53;5.53;;;;;;;18.26;87.47;100313.38;2616370;31;20030;-46
2021/08/19 06:59:53;;;;;;;5.90;5.07;;;;;;;18.09;89.64;100319.63;2614973;36;20035;-48
2021/08/19 07:02:20;;;;;;;6.90;6.20;;;;;;;17.95;86.88;100320.63;2614886;31;20064;-48
2021/08/19 07:04:47;;;;;;;7.38;6.10;;;;;;;18.20;87.91;100321.22;2615537;31;20027;-47
2021/08/19 07:07:14;;;;;;;11.80;5.85;;;;;;;18.00;88.03;100328.38;2615822;31;20594;-47
2021/08/19 07:09:41;;;;;;;7.70;6.35;;;;;;;17.95;87.13;100331.00;2614609;36;20037;-45
2021/08/19 07:12:09;;;;;;;6.90;5.65;;;;;;;18.03;87.69;100330.94;2614435;36;20038;-46
2021/08/19 07:14:36;;;;;;;5.97;5.20;;;;;;;18.15;87.41;100327.34;2615095;36;20439;-49
2021/08/19 07:17:03;;;;;;;6.82;5.60;;;;;;;18.25;88.78;100328.94;2614570;36;20034;-43
2021/08/19 07:19:30;;;;;;;7.85;6.15;;;;;;;18.18;86.24;100319.53;2615276;31;20590;-45
2021/08/19 07:21:57;;;;;;;7.93;6.60;;;;;;;18.20;86.77;100321.22;2614444;36;20034;-44
2021/08/19 07:24:24;;;;;;;9.70;7.43;;;;;;;17.95;88.01;100323.22;2615270;31;20042;-46
2021/08/19 07:26:52;;;;;;;7.60;6.38;;;;;;;18.02;88.02;100331.78;2615084;36;20065;-46
2021/08/19 07:29:19;;;;;;;8.25;6.45;;;;;;;17.97;88.45;100331.84;2614569;36;20065;-50
2021/08/19 07:31:46;;;;;;;8.60;6.13;;;;;;;17.92;89.94;100333.63;2615814;31;20438;-46
2021/08/19 07:34:13;;;;;;;9.15;6.82;;;;;;;18.02;88.33;100321.41;2614952;36;20038;-45
2021/08/19 07:36:40;;;;;;;8.10;6.90;;;;;;;17.98;88.03;100332.69;2615337;31;20022;-45
2021/08/19 07:39:07;;;;;;;6.70;6.00;;;;;;;18.03;87.50;100334.38;2615061;31;20034;-50
2021/08/19 07:41:35;;;;;;;10.20;6.50;;;;;;;18.00;88.94;100338.72;2614971;31;20046;-46
2021/08/19 07:44:03;;;;;;;7.55;6.18;;;;;;;18.21;88.09;100333.31;2615761;31;20030;-45
2021/08/19 07:46:30;;;;;;;9.90;7.22;;;;;;;18.29;86.32;100331.47;2615087;31;20030;-44
2021/08/19 07:48:59;;;;;;;8.07;6.63;;;;;;;18.25;88.09;100331.53;2616614;31;20034;-49
2021/08/19 07:51:26;;;;;;;7.72;6.95;;;;;;;18.54;85.27;100328.59;2616635;31;20041;-51
2021/08/19 07:53:53;;;;;;;10.10;7.10;;;;;;;18.41;84.39;100337.41;2615289;36;20061;-46
2021/08/19 07:56:20;;;;;;;8.27;6.50;;;;;;;18.62;86.49;100337.13;2615491;31;20045;-45
2021/08/19 07:58:47;;;;;;;9.57;7.07;;;;;;;18.63;86.99;100343.19;2614626;31;20066;-46
2021/08/19 08:01:15;;;;;;;8.60;7.72;;;;;;;18.73;86.60;100348.25;2614768;36;20424;-45
2021/08/19 08:03:42;;;;;;;10.20;6.78;;;;;;;18.87;84.56;100355.00;2615154;31;20058;-47
2021/08/19 08:06:11;;;;;;;7.88;6.63;;;;;;;18.81;85.68;100359.41;2615359;31;20033;-46
2021/08/19 08:08:38;;;;;;;10.27;7.93;;;;;;;18.87;83.66;100355.00;2614792;31;20594;-45
2021/08/19 08:11:06;;;;;;;9.20;8.18;;;;;;;18.67;83.68;100357.81;2614392;36;20599;-44
2021/08/19 08:13:33;;;;;;;8.23;7.38;;;;;;;18.52;85.46;100354.53;2615286;31;20680;-45
2021/08/19 08:16:00;;;;;;;7.95;7.15;;;;;;;18.54;85.38;100355.41;2615765;31;20610;-44
2021/08/19 08:18:27;;;;;;;8.10;6.82;;;;;;;18.60;86.36;100357.03;2615810;31;20041;-45
2021/08/19 08:20:57;;;;;;;9.45;8.13;;;;;;;18.36;85.93;100360.78;2614854;36;20030;-48
2021/08/19 08:23:24;;;;;;;9.77;8.82;;;;;;;18.36;84.44;100355.63;2615387;31;20590;-50
2021/08/19 08:25:51;;;;;;;8.63;7.78;;;;;;;18.40;84.39;100364.22;2616516;31;20038;-46
2021/08/19 08:28:26;;;;;;;9.38;8.40;;;;;;;18.41;84.88;100361.59;2614609;31;20030;-47
2021/08/19 08:30:53;;;;;;;10.43;8.15;;;;;;;18.49;85.31;100367.56;2614832;36;20035;-45
2021/08/19 08:33:21;;;;;;;9.07;7.45;;;;;;;18.71;84.85;100365.56;2614865;36;20034;-50
2021/08/19 08:35:49;;;;;;;8.60;7.10;;;;;;;18.92;83.70;100368.78;2615232;36;20901;-49
2021/08/19 08:38:18;;;;;;;9.70;8.15;;;;;;;19.21;81.60;100379.59;2615070;36;20034;-47
2021/08/19 08:40:49;;;;;;;9.02;8.13;;;;;;;19.21;82.22;100373.53;2614866;36;20038;-50
2021/08/19 08:43:20;;;;;;;9.77;7.50;;;;;;;19.47;81.09;100383.53;2614764;36;20079;-48
2021/08/19 08:45:49;;;;;;;7.50;6.70;;;;;;;19.85;80.78;100388.13;2615783;31;20413;-45
2021/08/19 08:48:22;;;;;;;8.13;7.32;;;;;;;19.56;78.60;100379.06;2615976;31;20030;-47
2021/08/19 08:50:52;;;;;;;7.65;6.95;;;;;;;19.61;78.63;100389.41;2614775;36;20043;-48
2021/08/19 08:53:20;;;;;;;7.28;6.50;;;;;;;19.39;80.79;100385.38;2615683;31;20031;-47
2021/08/19 08:55:47;;;;;;;9.13;6.97;;;;;;;19.38;80.87;100394.06;2614679;36;20585;-49
2021/08/19 08:58:15;;;;;;;9.30;7.22;;;;;;;19.13;80.43;100399.59;2614591;36;20038;-51
2021/08/19 09:00:47;;;;;;;8.13;7.30;;;;;;;18.70;81.97;100386.34;2614369;36;20030;-48
2021/08/19 09:03:16;;;;;;;8.77;7.82;;;;;;;18.75;82.11;100390.59;2615264;31;20488;-46
2021/08/19 09:05:49;;;;;;;7.50;6.70;;;;;;;18.81;82.55;100395.72;2615256;36;20041;-48
2021/08/19 09:08:21;;;;;;;6.78;6.07;;;;;;;19.15;82.11;100409.97;2580013;31;2004371;-44
2021/08/19 09:10:49;;;;;;;8.35;5.95;;;;;;;19.21;81.20;100402.94;2614796;36;20057;-48
2021/08/19 09:13:23;;;;;;;7.22;6.63;;;;;;;19.36;81.19;100409.66;2614898;36;20037;-46
2021/08/19 09:15:52;;;;;;;8.80;6.47;;;;;;;19.28;79.14;100404.59;2615776;31;20030;-47
2021/08/19 09:18:34;;;;;;;9.82;6.20;;;;;;;19.28;79.62;100406.34;2615296;31;20574;-44
2021/08/19 09:21:15;;;;;;;6.90;5.82;;;;;;;19.05;80.18;100401.47;2616020;31;20037;-44
2021/08/19 09:23:42;;;;;;;10.07;6.75;;;;;;;18.97;79.50;100405.88;2615043;31;20027;-44
2021/08/19 09:26:10;;;;;;;6.90;6.20;;;;;;;19.16;80.78;100409.09;2614684;36;20038;-44
2021/08/19 09:28:37;;;;;;;7.47;6.72;;;;;;;19.18;80.99;100407.31;2615766;31;20061;-44
2021/08/19 09:31:08;;;;;;;7.05;6.13;;;;;;;19.00;78.72;100409.31;2615372;31;20038;-44
2021/08/19 09:33:39;;;;;;;6.28;5.57;;;;;;;19.00;80.57;100411.91;2615884;31;20443;-46
2021/08/19 09:36:07;;;;;;;6.50;5.80;;;;;;;19.01;80.26;100408.44;2615194;31;20030;-45
2021/08/19 09:38:44;;;;;;;6.95;6.25;;;;;;;18.93;79.92;100412.84;2614153;36;20025;-46
2021/08/19 09:41:14;;;;;;;9.55;6.75;;;;;;;18.55;81.00;100419.34;2615327;31;20555;-47
2021/08/19 09:43:45;;;;;;;7.50;6.38;;;;;;;18.48;82.45;100417.69;2614660;36;20054;-44
2021/08/19 09:46:14;;;;;;;9.43;7.00;;;;;;;18.42;82.58;100420.34;2614464;36;20573;-45
2021/08/19 09:48:43;;;;;;;7.28;6.38;;;;;;;18.37;84.97;100431.66;2614320;36;20034;-44
2021/08/19 09:51:20;;;;;;;8.10;6.13;;;;;;;18.10;85.59;100423.25;2614412;36;20069;-45
2021/08/19 09:53:50;;;;;;;10.02;7.10;;;;;;;18.34;85.10;100432.53;2578274;31;2004398;-45
2021/08/19 09:56:32;;;;;;;9.60;8.23;;;;;;;18.34;84.81;100435.13;2615087;31;20041;-47
2021/08/19 09:59:21;;;;;;;9.52;7.03;;;;;;;18.46;84.67;100432.41;2615000;31;20569;-45
2021/08/19 10:01:51;;;;;;;7.95;7.20;;;;;;;18.35;86.29;100436.84;2580603;31;2004303;-47
2021/08/19 10:04:20;;;;;;;10.68;7.43;;;;;;;18.71;85.93;100429.56;2614473;36;20463;-45
2021/08/19 10:06:47;;;;;;;9.15;7.68;;;;;;;18.90;82.66;100427.59;2615729;31;20479;-46
2021/08/19 10:09:15;;;;;;;8.27;6.97;;;;;;;19.38;82.12;100433.03;2615034;31;20041;-44
2021/08/19 10:11:44;;;;;;;8.57;6.50;;;;;;;20.03;77.53;100432.00;2614798;31;20034;-44
2021/08/19 10:14:13;;;;;;;7.32;5.97;;;;;;;19.93;76.77;100429.59;2614688;36;20140;-46
2021/08/19 10:16:42;;;;;;;5.78;5.05;;;;;;;20.37;77.08;100436.56;2614302;36;20038;-46
2021/08/19 10:19:30;;;;;;;7.75;5.20;;;;;;;20.86;76.44;100435.66;2614315;31;20057;-46
2021/08/19 10:22:12;;;;;;;5.80;4.32;;;;;;;20.72;74.62;100437.69;2577985;31;2004822;-46
2021/08/19 10:24:42;;;;;;;5.43;4.82;;;;;;;20.77;74.46;100428.03;2614474;31;20030;-45
2021/08/19 10:27:13;;;;;;;6.82;4.68;;;;;;;20.49;74.83;100425.13;2614286;31;20057;-47
2021/08/19 10:29:43;;;;;;;7.60;5.72;;;;;;;20.44;73.81;100434.72;2614563;36;20075;-45
2021/08/19 10:32:34;;;;;;;7.03;4.97;;;;;;;20.25;75.94;100429.03;2614049;31;20022;-45
2021/08/19 10:35:10;;;;;;;5.70;4.43;;;;;;;20.09;76.73;100425.81;2577847;36;2004744;-50
2021/08/19 10:37:49;;;;;;;8.18;6.38;;;;;;;19.34;79.64;100421.81;2614010;31;20472;-45
2021/08/19 10:40:33;;;;;;;9.50;6.20;;;;;;;19.21;79.95;100425.47;2579140;31;2004415;-46
2021/08/19 10:43:32;;;;;;;7.93;5.70;;;;;;;19.36;80.98;100430.41;2614229;36;20435;-47
2021/08/19 10:46:09;;;;;;;8.52;5.30;;;;;;;19.37;80.52;100436.50;2577860;36;2004253;-43
2021/08/19 10:48:44;;;;;;;8.32;5.68;;;;;;;19.43;82.24;100426.00;2614398;31;20584;-45
2021/08/19 10:51:12;;;;;;;5.97;5.47;;;;;;;19.95;78.46;100435.59;2614712;31;20038;-44
2021/08/19 10:53:39;;;;;;;6.80;5.40;;;;;;;22.44;69.18;100432.78;2614279;36;20038;-43
2021/08/19 10:56:07;;;;;;;6.55;5.22;;;;;;;24.99;60.56;100434.09;2614480;36;20039;-44
2021/08/19 10:58:36;;;;;;;8.82;5.22;;;;;;;26.99;51.66;100434.50;2614143;31;20034;-45
2021/08/19 11:01:17;;;;;;;6.25;4.80;;;;;;;26.65;50.62;100429.00;2614516;31;20027;-47
2021/08/19 11:03:47;;;;;;;5.20;4.68;;;;;;;24.60;55.78;100429.44;2614256;31;20026;-48
2021/08/19 11:06:19;;;;;;;5.75;4.75;;;;;;;24.12;55.66;100432.00;2614094;36;20034;-46
2021/08/19 11:08:52;;;;;;;6.78;4.82;;;;;;;22.59;60.46;100424.50;2579268;31;2004622;-46
2021/08/19 11:11:34;;;;;;;5.00;4.43;;;;;;;22.36;60.96;100425.13;2614033;36;20030;-47
2021/08/19 11:14:17;;;;;;;5.65;4.82;;;;;;;21.81;65.99;100433.50;2615727;36;20058;-48
2021/08/19 11:16:54;;;;;;;6.10;5.05;;;;;;;21.59;64.12;100434.06;2614738;36;20031;-44
2021/08/19 11:19:23;;;;;;;6.57;5.07;;;;;;;21.27;64.09;100433.91;2577950;36;2004758;-44
2021/08/19 11:21:55;;;;;;;6.55;5.03;;;;;;;21.58;63.88;100437.56;2614216;31;20038;-47
2021/08/19 11:24:23;;;;;;;6.38;4.90;;;;;;;21.59;63.50;100435.81;2613975;36;20065;-44
2021/08/19 11:27:10;;;;;;;5.70;4.70;;;;;;;21.38;62.60;100431.94;2614827;31;20061;-44
2021/08/19 11:29:42;;;;;;;7.40;5.25;;;;;;;21.11;64.90;100434.22;2614542;31;20075;-44